Your browser is no longer supported. Please, upgrade your browser.
Filter
Ticker Owner Relationship Date Transaction Cost #Shares Value ($) #Shares Total SEC Form 4
STMLForman Alan SDirectorDec 04Buy9.731,0009,73088,298Dec 06 07:51 PM
CNBKAFiller James J10% OwnerDec 06Buy86.4440034,574733,202Dec 06 05:56 PM
CNBKAFiller James J10% OwnerDec 05Buy85.8520017,170732,802Dec 06 05:56 PM
CNBKAFiller James J10% OwnerDec 04Buy86.0022519,350732,602Dec 06 05:56 PM
CNBKAFiller James J10% OwnerDec 03Buy85.4530025,635732,377Dec 06 05:56 PM
CNBKAFiller James J10% OwnerDec 02Buy86.6625922,445732,077Dec 06 05:56 PM
CNBKAFiller James J10% OwnerNov 29Buy86.888695731,818Dec 06 05:56 PM
POPEDAHL JAMES H10% OwnerDec 04Buy92.9891384,89128,911Dec 06 05:54 PM
PBFInversora Carso, S.A. de C.V.Add'l Rep. Persons-see Ex.99-1Dec 05Buy30.90435,79113,466,02919,272,069Dec 06 05:24 PM
PBFInversora Carso, S.A. de C.V.Add'l Rep. Persons-see Ex.99-1Dec 04Buy31.10375,63611,683,51918,836,278Dec 06 05:24 PM
CTOBrokaw George RDirectorDec 05Buy61.70764,6893,853Dec 06 05:21 PM
RRTSELLIOTT INTERNATIONAL, L.P.10% OwnerDec 06Buy9.107877,16223,288,416Dec 06 05:14 PM
RRTSELLIOTT INTERNATIONAL, L.P.10% OwnerDec 05Buy9.028527,68523,287,629Dec 06 05:14 PM
RRTSELLIOTT INTERNATIONAL, L.P.10% OwnerDec 04Buy9.193643,34523,286,777Dec 06 05:14 PM
ARCCMcKeever Steven B.DirectorDec 05Buy18.753,00056,25028,322Dec 06 05:00 PM
KODBAKER BROS. ADVISORS LPDirectorDec 06Buy46.001,902,17387,499,95810,118,929Dec 06 04:46 PM
EPDWILLIAMS RANDA DUNCANDirectorDec 04Buy25.96322,0008,357,8644,031,669Dec 06 04:35 PM
KLXEMCCAFFREY THOMAS PSVP and CFODec 06Buy5.2575,000393,945872,487Dec 06 04:29 PM
GIFIPITON CAPITAL PARTNERS LLC10% OwnerDec 05Buy4.9913,53267,5251,811,894Dec 06 04:20 PM
NATRWYNNEFIELD PARTNERS SMALL CAP 10% OwnerDec 04Buy9.821,53815,0991,639,112Dec 06 04:16 PM
NATRWYNNEFIELD PARTNERS SMALL CAP 10% OwnerDec 04Buy9.827046,911745,779Dec 06 04:16 PM
GIFIAverick Robert MDirectorDec 05Buy4.9913,53267,5251,811,894Dec 06 04:15 PM
QESStanford Geoffrey CChief Accounting OfficerDec 04Buy2.656,00015,90030,286Dec 06 04:06 PM
HTBISwitzer JohnDirectorNov 27Buy26.391,00026,3941,000Dec 06 03:57 PM
PFSDunigan James PDirectorDec 04Buy23.881,00023,88013,358Dec 06 03:16 PM
SAFESUGARMAN JAYChairman and CEODec 06Buy42.2525010,56337,864Dec 06 03:16 PM
FRDReichenthal Max AlanVP - Secretary & TreasurerDec 04Buy6.156,00036,8707,000Dec 06 03:08 PM
CUBHamby Janice M.DirectorDec 05Buy63.671006,3674,990Dec 06 02:30 PM
SRRasche Steven PExecutive Vice PresidentDec 05Buy26.552,82474,9775,797Dec 06 02:16 PM
SCXSTARRETT DOUGLAS APresident & CFONov 14Buy5.055002,52561,254Dec 06 02:16 PM
SONAGARRETT F L IIIDirectorDec 05Buy16.0592514,84616,994Dec 06 01:29 PM
CTSOChan Phillip P.President and CEODec 06Buy3.6016,50059,400657,688Dec 06 11:45 AM
TPLHORIZON KINETICS ASSET MANAGEM10% OwnerDec 05Buy666.404026,656314,636Dec 06 11:36 AM
RAVESolano BrandonChief Executive OfficerDec 05Buy1.8113,00023,46713,000Dec 06 11:28 AM
USPHGilmartin Kathleen ADirectorDec 05Buy114.0050057,0004,600Dec 06 10:17 AM
VERBCUTAIA RORY J.CEODec 05Buy0.851,5001,2803,303,015Dec 06 09:00 AM
HYREFurnari JosephCHIEF EXECUTIVE OFFICERDec 05Buy1.974,0007,880563,207Dec 06 08:00 AM
NTNELLIN ROBERT S10% OwnerDec 05Buy2.90100290157,071Dec 06 06:30 AM
LIVXELLIN ROBERT SCEO & ChairmanDec 05Buy2.04400817160,004Dec 06 06:30 AM
LIVXELLIN ROBERT SCEO & ChairmanDec 04Buy2.071,1002,27317,231,213Dec 06 06:30 AM
LIVXELLIN ROBERT SCEO & ChairmanDec 03Buy1.981,6003,17417,230,113Dec 06 06:30 AM
OPKFROST PHILLIP MD ET ALCEO & ChairmanDec 05Buy1.6050,00080,000168,094,729Dec 06 06:11 AM
ARCTSASSINE ANDYChief Financial OfficerDec 03Buy10.0010,000100,000257,596Dec 05 09:39 PM
OCSLPanossian ArmenChief Executive OfficerDec 03Buy5.2517,50091,95417,500Dec 05 08:03 PM
GLDDLevenson RyanDirectorDec 04Buy10.6553,536570,014290,118Dec 05 06:48 PM
PTMNGoldthorpe Edward J.President, CEODec 04Buy2.071,0002,07156,877Dec 05 06:37 PM
PTMNGoldthorpe Edward J.President, CEODec 03Buy2.0623,23847,85255,877Dec 05 06:37 PM
EXPEGieselman Jon T.DirectorDec 05Buy104.292,393249,5652,393Dec 05 06:10 PM
HSACWONG RODERICKChief Executive OfficerDec 05Buy10.1520,000203,000395,027Dec 05 06:07 PM
AIRTCABILLOT RAYMOND EDirectorDec 04Buy22.00851,8705,813Dec 05 05:38 PM
AIRTCABILLOT RAYMOND EDirectorDec 03Buy22.00871,9145,728Dec 05 05:38 PM
CDEVO'Connor Davis OVP, General CounselDec 03Buy3.0310,00030,291294,861Dec 05 05:33 PM
CIFOSS ERIC JDirectorDec 03Buy195.4110,2001,993,16525,683Dec 05 05:26 PM
PRPOSabet Ahmed ZakiChief Operations OfficerDec 02Buy2.111272684Dec 05 05:23 PM
EVHBlackley SethPresidentDec 04Buy6.7314,74999,261157,976Dec 05 05:16 PM
EVHWILLIAMS FRANK JChief Executive OfficerDec 03Buy6.5135,000227,850623,655Dec 05 05:15 PM
SAFESUGARMAN JAYChairman and CEODec 05Buy42.7340017,09237,614Dec 05 05:01 PM
EDSanchez RobertPresident & CEO, O&RNov 30Buy87.13272,3112,693Dec 05 04:54 PM
EDOATES JOSEPH PChairman, President & CEO CETNov 30Buy87.13655624,442Dec 05 04:53 PM
EDNadkarni Gurudatta DVP, Strategic PlanningNov 30Buy87.13242,0797,176Dec 05 04:52 PM
EDMuccilo RobertVP & Chief Accounting OfficerNov 30Buy87.13232,0007,189Dec 05 04:51 PM
EDMcAvoy JohnChairman, President & CEONov 30Buy87.13272,316128,556Dec 05 04:49 PM
LOPEKeegan Lisa GrahamDirectorDec 04Buy87.111008,711258Dec 05 04:48 PM
EDHOGLUND ROBERT NSVP & CFONov 30Buy87.13272,31539,539Dec 05 04:48 PM
EDCawley TimothyPresident, CECONYNov 30Buy87.13272,31615,140Dec 05 04:47 PM
CMCTDeBacker Nathan DavidChief Financial OfficerDec 05Buy14.453,00043,3503,000Dec 05 04:46 PM
EDde la Bastide LoreSVP, Utility Shared ServicesNov 30Buy87.134333630Dec 05 04:46 PM
CNSGlickson John ToddExecutive Vice PresidentAug 23Buy54.60703,81065,011Dec 05 04:45 PM
KODKKARFUNKEL GEORGEDirectorDec 03Buy2.504,437,60511,094,0136,706,276Dec 05 04:31 PM
KODKKatz Philippe DDirectorDec 03Buy2.502,218,8035,547,0082,522,011Dec 05 04:30 PM
AVDLEnde Eric JDirectorDec 04Buy5.9710,00059,70047,900Dec 05 04:30 PM
AVDLPalczuk LindaDirectorDec 03Buy5.917,50044,32535,400Dec 05 04:29 PM
HTShah Neil HPresident and COODec 03Buy14.003,57550,050354,386Dec 05 04:28 PM
HTShah Jay HChief Executive OfficerDec 03Buy14.003,57550,050309,049Dec 05 04:28 PM
TDSDavis Clarence ADirectorDec 03Buy23.321,00023,32210,500Dec 05 04:27 PM
MTSCHarrison Steven BEVP & Pres. Test & SimulationDec 03Buy44.5590040,09518,902Dec 05 04:20 PM
HQIMcAnnar JohnSecretary, VP, GCDec 04Buy6.872,50017,17531,702Dec 05 04:14 PM
ACGABELLI MARIO JExecutive ChairmanDec 04Buy35.992,26481,48968,964Dec 05 04:13 PM
EPDWILLIAMS RANDA DUNCANDirectorDec 03Buy25.72163,6604,208,9923,951,169Dec 05 04:12 PM
IIPRGold Alan DExecutive ChairmanDec 05Buy71.5438027,185318,819Dec 05 03:39 PM
CLFFisher Robert P JrDirectorDec 05Buy7.785,00038,907123,137Dec 05 02:41 PM
OCGNZhang JungeDirectorDec 04Buy0.44220,00096,800818,578Dec 05 02:01 PM
DAKTKurtenbach Reece AChairman, President and CEODec 04Buy6.118,90754,422331,643Dec 05 01:58 PM
DAKTKurtenbach Reece AChairman, President and CEODec 03Buy5.991,0936,547322,736Dec 05 01:58 PM
GSATMonroe James IIIChief Executive OfficerDec 03Buy0.41332,276136,233828,784,358Dec 05 12:11 PM
GSATWolff Benjamin GDirectorDec 03Buy0.414,5001,845127,892Dec 05 12:08 PM
TPLHORIZON KINETICS ASSET MANAGEM10% OwnerDec 04Buy666.643321,999314,596Dec 05 11:29 AM
PPRSaba Capital Management, L.P.10% OwnerDec 04Buy4.831,9009,17722,893,493Dec 05 11:15 AM
PPRSaba Capital Management, L.P.10% OwnerDec 03Buy4.8217,51384,41322,891,593Dec 05 11:15 AM
TURNWolfe Daniel BPresidentDec 04Buy2.131,5003,195280,000Dec 05 08:56 AM
WATTRIZZONE STEPHEN RCEO and PresidentDec 04Buy1.9510,25019,986585,970Dec 05 06:14 AM
NMFCArnold Rome G. IIIDirectorDec 02Buy13.576,00081,42017,548Dec 05 06:11 AM
SLGGJUNG MARKDirectorDec 02Buy2.259162,06143,592Dec 04 09:55 PM
NTNELLIN ROBERT S10% OwnerOct 14Buy3.50100350198,995Dec 04 09:52 PM
LIVXELLIN ROBERT SCEO & ChairmanDec 02Buy1.908001,52117,228,513Dec 04 09:52 PM
LIVXELLIN ROBERT SCEO & ChairmanNov 29Buy1.958001,55717,227,713Dec 04 09:52 PM
LIVXELLIN ROBERT SCEO & ChairmanNov 27Buy1.8750093417,226,913Dec 04 09:52 PM
LIVXELLIN ROBERT SCEO & ChairmanNov 26Buy1.767001,23517,226,413Dec 04 09:52 PM
STMLForman Alan SDirectorDec 02Buy10.291,00010,29087,298Dec 04 09:36 PM
BTNFundamental Global Investors, DirectorDec 04Buy2.709462,5541,511,710Dec 04 09:36 PM
BTNFundamental Global Investors, DirectorDec 03Buy2.699472,5521,511,237Dec 04 09:36 PM
BTNFundamental Global Investors, DirectorDec 02Buy2.709472,5551,510,763Dec 04 09:36 PM
HASIEckel JeffreyPresident and CEODec 03Buy29.061,37639,987107,661Dec 04 09:31 PM
HASIEckel JeffreyPresident and CEODec 03Buy29.061,03229,990642,484Dec 04 09:31 PM
MWKSarig Yaniv ZionSee RemarksDec 02Buy5.451,1005,995917,107Dec 04 09:22 PM
CUBDevine Denise LDirectorDec 04Buy64.1622014,114220Dec 04 09:01 PM
CUBFELDMANN BRADLEY HChairman/President/CEODec 04Buy63.261,00063,26171,880Dec 04 09:00 PM
ICMBInvestcorp BDC Holdings Ltd10% OwnerDec 04Buy7.151,90013,578172,121Dec 04 08:49 PM
ICMBInvestcorp BDC Holdings Ltd10% OwnerDec 03Buy7.151,90113,597170,221Dec 04 08:49 PM
ICMBInvestcorp BDC Holdings Ltd10% OwnerDec 02Buy10.19113,5001,156,565168,320Dec 04 08:49 PM
UVEDOWNES SEAN PDirectorDec 04Buy28.611,00028,6091,464,553Dec 04 08:00 PM
LAZYMURNANE WILLIAM PChief Executive OfficerDec 02Buy4.051,0004,050184,698Dec 04 07:20 PM
OXSQROSENTHAL SAUL BPresident and COODec 04Buy5.303,69919,5871,250,432Dec 04 06:47 PM
OXSQROSENTHAL SAUL BPresident and COODec 03Buy5.2621,645113,9371,246,733Dec 04 06:47 PM
OXSQROSENTHAL SAUL BPresident and COODec 02Buy5.2810,40054,9131,225,088Dec 04 06:47 PM
HSACWONG RODERICKChief Executive OfficerDec 04Buy10.1520,000203,000375,027Dec 04 06:33 PM
SAFESUGARMAN JAYChairman and CEODec 04Buy42.4025010,60037,214Dec 04 06:29 PM
PBFXJones Bruce A.DirectorDec 02Buy20.3359011,99218,540Dec 04 06:29 PM
RRGBMURPHY PAUL J B IIIPresident and CEODec 03Buy27.3210,000273,17010,000Dec 04 06:09 PM
MYOVRoivant Sciences Ltd.10% OwnerDec 04Buy17.0675,0001,279,31544,763,604Dec 04 06:08 PM
MYOVRoivant Sciences Ltd.10% OwnerDec 02Buy18.44179,1933,305,04144,688,604Dec 04 06:08 PM
GTTSPRUCE HOUSE PARTNERSHIP LP10% OwnerDec 04Buy9.77506,7004,952,43515,075,000Dec 04 05:57 PM
GTTSPRUCE HOUSE PARTNERSHIP LP10% OwnerDec 03Buy9.11436,0003,972,57014,568,300Dec 04 05:57 PM
GTTSPRUCE HOUSE PARTNERSHIP LP10% OwnerDec 02Buy8.88187,3001,662,34414,132,300Dec 04 05:57 PM
GLDDLevenson RyanDirectorDec 03Buy10.5513,839146,046236,582Dec 04 05:51 PM
GLDDLevenson RyanDirectorDec 02Buy10.5832,625345,146222,743Dec 04 05:51 PM
UMBFGRAVES GREG MDirectorDec 02Buy66.97151,00023,675Dec 04 05:48 PM
CMCTThompson David AndrewChief Executive OfficerDec 04Buy14.397,500107,9157,500Dec 04 05:18 PM
EPDWILLIAMS RANDA DUNCANDirectorDec 02Buy26.00240,0006,240,2883,910,254Dec 04 05:06 PM
FLNTSchulke RyanChief Executive OfficerDec 03Buy1.688,42314,1237,226,595Dec 04 05:00 PM
CBLASHNER MICHAEL LDirectorDec 04Buy1.041,000,0001,040,00011,350,000Dec 04 04:51 PM
CZWIBianchi Stephen MCEO and PresidentDec 03Buy11.992102,51833,241Dec 04 04:36 PM
CZWIBianchi Stephen MCEO and PresidentDec 03Buy12.002428834,279Dec 04 04:36 PM
CZWIBianchi Stephen MCEO and PresidentDec 02Buy11.921001,19234,255Dec 04 04:36 PM
KDPDeNooyer Mary BethChief Human Resources OfficerDec 03Buy30.096,500195,597102,500Dec 04 04:32 PM
WTBADONOVAN PATRICK JDirectorDec 03Buy24.061,50036,09010,000Dec 04 04:31 PM
ASIXMarberry MichaelDirectorDec 03Buy19.541,52429,77954,303Dec 04 04:26 PM
ASIXMarberry MichaelDirectorDec 02Buy19.743,57670,59052,779Dec 04 04:26 PM
MCHXEdenbrook Capital, LLC10% OwnerDec 02Buy3.9712,58149,9235,133,684Dec 04 04:23 PM
WOWElder Teresa LChief Executive OfficerDec 03Buy5.9212,67275,0181,054,188Dec 04 04:16 PM
XONEGrace CharlesChief Customer OfficerDec 04Buy6.655,00033,25715,000Dec 04 04:16 PM
MCHXARENDS MICHAEL ACo-CEO & CFODec 03Buy3.96125495790,504Dec 04 04:16 PM
NBLSTOVER DAVID LCEO & DirectorDec 04Buy20.9212,000251,084680,453Dec 04 04:13 PM
HHCPershing Square Capital ManageDirectorDec 02Buy115.001,746,476200,844,7402,194,793Dec 04 04:10 PM
STAYHAASE BRUCE NSee RemarksDec 03Buy14.427,500108,1137,500Dec 04 04:07 PM
GPNJOHNSON JOIA MDirectorDec 02Buy178.4556099,9322,347Dec 04 04:06 PM
VVIBENETT ANDREW BDirectorDec 02Buy62.581,00062,58015,230Dec 04 04:02 PM
DHILBRILLIANT HEATHER EChief Executive OfficerDec 03Buy134.0060080,40022,819Dec 04 04:02 PM
FRMELehman GaryDirectorDec 02Buy40.64411,66739,690Dec 04 02:32 PM
FRMESherman Patrick ADirectorDec 02Buy40.641250039,771Dec 04 02:31 PM
EBTCPEDROSO LUIS MDirectorDec 02Buy31.69621,96518,397Dec 04 02:22 PM
EBTCPUTZIGER MICHAEL TDirectorDec 02Buy31.691865,894175,291Dec 04 02:19 PM
TPLHORIZON KINETICS ASSET MANAGEM10% OwnerDec 03Buy645.613321,305314,563Dec 04 11:53 AM
AGRSolomont Alan DDirectorDec 02Buy48.4520710,0295,263Dec 04 11:42 AM
CVLYKAUFFMAN CRAIG LEVP & COODec 02Buy22.3210,000223,18815,263Dec 04 11:21 AM
GAIASutherland Paul HowardDirectorDec 03Buy8.039437,57295,000Dec 04 10:45 AM
TYGCICCOTELLO CONRAD SDirectorDec 03Buy16.701001,67013,472Dec 04 10:36 AM
FIXMYERS FRANKLINChairman of the BoardDec 03Buy49.495,000247,428260,000Dec 04 10:32 AM
PBHanigan Kevin JPresident & COODec 02Buy69.243,000207,720160,841Dec 04 09:57 AM
FMNBWallace Amber BSr VP/Chief Retail/MarketingDec 02Buy15.281319924,235Dec 04 08:39 AM
FMNBMoore Terry ADirectorDec 02Buy15.282734,17130,862Dec 04 08:37 AM
MTDRMacalik Robert TSVP, Chief Accounting OfficerDec 03Buy13.951,90026,5054,950Dec 04 08:37 AM
TMPHARTZ GREGORY JEVP, Pres.&CEO Tompkins TrustDec 02Buy87.01110017Dec 04 08:35 AM
FMNBSabat Joseph WVP/ControllerDec 02Buy15.28821,25315,787Dec 04 08:33 AM
FMNBMuransky EdwardDirectorDec 04Buy15.282453,74425,609Dec 04 08:32 AM
FMNBHelmick Kevin JPresident & CEODec 02Buy15.283350476,971Dec 04 08:24 AM
CIVBSinger HarryDirectorDec 03Buy21.201,20025,4401,200Dec 04 07:30 AM
TNXPLEDERMAN SETHChief Executive OfficerDec 03Buy1.1620,00023,18023,267Dec 04 07:00 AM
OPKFROST PHILLIP MD ET ALCEO & ChairmanDec 03Buy1.6010,28616,458168,044,729Dec 04 06:38 AM
CWBCSTOVESAND KIRKDirectorDec 02Buy10.692823,01554,894Dec 03 08:05 PM
POPEDAHL JAMES H10% OwnerDec 03Buy94.522,900274,094188,648Dec 03 07:59 PM
POPEDAHL JAMES H10% OwnerDec 02Buy92.462,200203,406187,748Dec 03 07:59 PM
POPEDAHL JAMES H10% OwnerNov 29Buy88.021,803158,698186,248Dec 03 07:59 PM
PBFInversora Carso, S.A. de C.V.Add'l Rep. Persons-see Ex.99-1Nov 29Buy31.29150,0004,693,35018,460,642Dec 03 07:58 PM
OSSRAUN DAVIDDirectorDec 03Buy1.803,6106,49832,110Dec 03 07:44 PM
OSSRAUN DAVIDDirectorNov 27Buy1.861,0001,86028,500Dec 03 07:44 PM
HZNWilson Harry JamesDirectorDec 03Buy3.291,6005,264480,021Dec 03 07:40 PM
HZNWilson Harry JamesDirectorNov 29Buy3.372,1007,077478,421Dec 03 07:40 PM
SPLPLICHTENSTEIN WARREN GExecutive ChairmanDec 03Buy12.001431,716170,016Dec 03 07:18 PM
SPLPLICHTENSTEIN WARREN GExecutive ChairmanDec 02Buy12.007,33587,994169,873Dec 03 07:18 PM
SPLPLICHTENSTEIN WARREN GExecutive ChairmanNov 29Buy11.926,64779,220162,538Dec 03 07:18 PM
BANCWOLFF JARED MPRESIDENT AND CEODec 03Buy15.1816,500250,50829,500Dec 03 07:06 PM
PTGXGiraudo BryanDirectorDec 03Buy5.708,00045,6208,000Dec 03 06:46 PM
RRTSELLIOTT INTERNATIONAL, L.P.10% OwnerDec 03Buy8.953,23128,91723,286,413Dec 03 06:42 PM
RRTSELLIOTT INTERNATIONAL, L.P.10% OwnerDec 02Buy9.175985,48423,283,182Dec 03 06:42 PM
RRTSELLIOTT INTERNATIONAL, L.P.10% OwnerNov 29Buy9.272252,08623,282,584Dec 03 06:42 PM
PTGXGupta SuneelEVP Clinical OperationsDec 03Buy5.1330,000153,90049,500Dec 03 06:32 PM
SAFESUGARMAN JAYChairman and CEODec 03Buy40.5030012,15036,964Dec 03 06:24 PM
PTGXKalkofen Donald A.Chief Financial OfficerDec 03Buy5.101,1755,9871,175Dec 03 06:11 PM
PTGXPATEL DINESH V PH DPresident and CEODec 03Buy5.6230,000168,500409,824Dec 03 06:10 PM
CRZOWEBSTER STEVEN ADirectorNov 29Buy6.4125,000160,2332,895,988Dec 03 05:52 PM
HSACWONG RODERICKChief Executive OfficerDec 03Buy10.2120,000204,200355,027Dec 03 05:42 PM
HSACWONG RODERICKChief Executive OfficerDec 02Buy10.4020,000208,000335,027Dec 03 05:42 PM
HSACWONG RODERICKChief Executive OfficerNov 29Buy10.4526,918281,293315,027Dec 03 05:42 PM
NBLUrban Scott DDirectorDec 03Buy20.3815,000305,64315,000Dec 03 05:07 PM
PFSHarding Matthew K.DirectorDec 03Buy23.821,00023,82036,865Dec 03 04:57 PM
THKalamaras EricEVP and CFODec 02Buy4.538,20837,18220,158Dec 03 04:44 PM
PNNTPENN ARTHUR HChairman and CEODec 02Buy6.1716,00098,736823,423Dec 03 04:34 PM
AIRTCABILLOT RAYMOND EDirectorDec 03Buy22.0095320,9665,641Dec 03 04:33 PM
FLNTConlin MatthewPresidentNov 29Buy1.7113,54123,1426,002,670Dec 03 04:32 PM
open in screener